createdAt,value
2018-12-25T00:05:05.616Z,5.93
2018-12-25T00:11:10.421Z,5.10
2018-12-25T00:17:15.051Z,5.60
2018-12-25T00:23:19.636Z,7.00
2018-12-25T00:29:24.227Z,6.60
2018-12-25T00:35:28.767Z,6.30
2018-12-25T00:41:33.332Z,5.70
2018-12-25T00:47:37.893Z,6.37
2018-12-25T00:53:42.463Z,6.43
2018-12-25T00:59:47.065Z,6.60
2018-12-25T01:05:51.716Z,6.00
2018-12-25T01:13:02.461Z,5.57
2018-12-25T01:19:07.021Z,6.23
2018-12-25T01:25:11.676Z,6.13
2018-12-25T01:31:16.237Z,6.43
2018-12-25T01:37:20.985Z,6.07
2018-12-25T01:43:25.570Z,7.30
2018-12-25T01:49:31.883Z,5.97
2018-12-25T01:55:36.434Z,7.00
2018-12-25T02:01:41.051Z,7.40
2018-12-25T02:07:45.605Z,7.30
2018-12-25T02:13:50.314Z,6.80
2018-12-25T02:19:54.978Z,7.40
2018-12-25T02:25:59.556Z,8.13
2018-12-25T02:32:04.200Z,7.03
2018-12-25T02:38:08.834Z,8.03
2018-12-25T02:44:13.416Z,7.07
2018-12-25T02:50:19.030Z,7.33
2018-12-25T02:56:23.611Z,7.47
2018-12-25T03:02:28.161Z,8.30
2018-12-25T03:08:32.715Z,7.63
2018-12-25T03:14:37.292Z,7.13
2018-12-25T03:20:41.851Z,6.83
2018-12-25T03:26:46.409Z,6.77
2018-12-25T03:32:51.057Z,7.00
2018-12-25T03:38:55.605Z,7.17
2018-12-25T03:45:00.496Z,7.83
2018-12-25T03:51:05.111Z,6.97
2018-12-25T03:57:09.654Z,7.30
2018-12-25T04:03:14.223Z,6.07
2018-12-25T04:09:19.634Z,6.67
2018-12-25T04:15:24.191Z,5.80
2018-12-25T04:21:28.761Z,7.17
2018-12-25T04:27:33.324Z,6.20
2018-12-25T04:33:37.873Z,6.17
2018-12-25T04:39:42.457Z,5.37
2018-12-25T04:45:47.010Z,5.70
2018-12-25T04:51:51.594Z,4.90
2018-12-25T04:57:56.148Z,4.83
2018-12-25T05:04:00.783Z,4.70
2018-12-25T05:10:06.538Z,6.00
2018-12-25T05:16:11.101Z,5.07
2018-12-25T05:22:15.666Z,3.73
2018-12-25T05:28:21.713Z,4.57
2018-12-25T05:34:26.283Z,5.37
2018-12-25T05:40:30.844Z,5.53
2018-12-25T05:46:35.413Z,5.70
2018-12-25T05:52:39.988Z,4.80
2018-12-25T05:58:44.540Z,8.40
2018-12-25T06:04:50.825Z,5.87
2018-12-25T06:10:55.382Z,5.80
2018-12-25T06:16:59.946Z,5.00
2018-12-25T06:23:04.499Z,5.00
2018-12-25T06:29:09.099Z,5.63
2018-12-25T06:35:13.708Z,5.73
2018-12-25T06:41:18.278Z,4.63
2018-12-25T06:47:22.992Z,5.63
2018-12-25T06:53:27.649Z,4.73
2018-12-25T06:59:32.200Z,5.53
2018-12-25T07:05:36.772Z,5.30
2018-12-25T07:11:41.330Z,6.27
2018-12-25T07:17:45.911Z,5.60
2018-12-25T07:23:50.476Z,5.30
2018-12-25T07:29:55.033Z,5.27
2018-12-25T07:35:59.582Z,5.60
2018-12-25T07:42:04.148Z,7.50
2018-12-25T07:48:08.718Z,7.67
2018-12-25T07:54:13.307Z,6.60
2018-12-25T08:00:19.570Z,6.87
2018-12-25T08:06:24.244Z,6.90
2018-12-25T08:12:28.801Z,8.13
2018-12-25T08:18:33.372Z,7.70
2018-12-25T08:24:37.935Z,8.60
2018-12-25T08:30:42.496Z,7.03
2018-12-25T08:36:47.053Z,6.80
2018-12-25T08:42:52.323Z,6.27
2018-12-25T08:48:56.865Z,6.50
2018-12-25T08:55:01.423Z,5.27
2018-12-25T09:01:06.065Z,6.80
2018-12-25T09:07:10.616Z,5.47
2018-12-25T09:13:15.172Z,6.63
2018-12-25T09:19:19.745Z,6.67
2018-12-25T09:25:24.305Z,35.43
2018-12-25T09:31:28.877Z,6.13
2018-12-25T09:37:33.485Z,5.57
2018-12-25T09:43:38.046Z,6.60
2018-12-25T09:49:42.674Z,6.43
2018-12-25T09:55:47.222Z,9.90
2018-12-25T10:01:51.783Z,6.53
2018-12-25T10:07:56.434Z,6.20
2018-12-25T10:14:00.984Z,10.80
2018-12-25T10:20:05.963Z,12.70
2018-12-25T10:26:10.597Z,6.63
2018-12-25T10:32:15.155Z,7.73
2018-12-25T10:38:19.734Z,9.30
2018-12-25T10:44:24.279Z,8.20
2018-12-25T10:50:28.839Z,7.40
2018-12-25T10:56:33.407Z,6.90
2018-12-25T11:02:37.972Z,10.37
2018-12-25T11:08:42.514Z,8.40
2018-12-25T11:14:47.078Z,8.43
2018-12-25T11:20:52.201Z,8.87
2018-12-25T11:26:56.767Z,9.67
2018-12-25T11:33:01.320Z,8.90
2018-12-25T11:39:07.102Z,7.93
2018-12-25T11:45:11.738Z,6.37
2018-12-25T11:51:16.301Z,5.83
2018-12-25T11:57:20.858Z,6.90
2018-12-25T12:03:25.427Z,6.80
2018-12-25T12:09:30.087Z,6.73
2018-12-25T12:15:34.640Z,5.80
2018-12-25T12:21:39.206Z,6.27
2018-12-25T12:27:43.763Z,5.00
2018-12-25T12:33:48.345Z,12.30
2018-12-25T12:39:52.980Z,9.00
2018-12-25T12:45:57.610Z,4.83
2018-12-25T12:52:02.175Z,4.67
2018-12-25T12:58:06.804Z,4.27
2018-12-25T13:04:11.367Z,3.53
2018-12-25T13:10:15.918Z,3.30
2018-12-25T13:16:20.496Z,2.97
2018-12-25T13:22:25.043Z,2.20
2018-12-25T13:28:29.603Z,2.53
2018-12-25T13:34:34.171Z,2.40
2018-12-25T13:40:38.710Z,3.07
2018-12-25T13:46:51.325Z,2.47
2018-12-25T13:52:49.572Z,2.90
2018-12-25T13:58:55.012Z,2.80
2018-12-25T14:04:59.622Z,5.40
2018-12-25T14:11:04.291Z,7.10
2018-12-25T14:17:08.829Z,8.27
2018-12-25T14:23:13.402Z,18.10
2018-12-25T14:29:18.012Z,3.90
2018-12-25T14:35:22.634Z,2.97
2018-12-25T14:41:27.187Z,5.10
2018-12-25T14:47:31.745Z,3.90
2018-12-25T14:53:36.297Z,4.10
2018-12-25T14:59:40.914Z,4.60
2018-12-25T15:05:45.477Z,5.40
2018-12-25T15:11:50.047Z,3.87
2018-12-25T15:17:54.616Z,4.47
2018-12-25T15:23:59.254Z,3.60
2018-12-25T15:30:03.877Z,3.20
2018-12-25T15:36:08.522Z,5.13
2018-12-25T15:42:13.080Z,5.57
2018-12-25T15:48:17.651Z,4.50
2018-12-25T15:54:22.255Z,4.77
2018-12-25T16:00:26.874Z,6.90
2018-12-25T16:06:31.432Z,7.30
2018-12-25T16:12:35.997Z,11.33
2018-12-25T16:18:40.558Z,11.10
2018-12-25T16:24:45.126Z,10.47
2018-12-25T16:30:49.714Z,6.40
2018-12-25T16:36:54.267Z,4.73
2018-12-25T16:42:58.843Z,7.67
2018-12-25T16:49:03.473Z,8.30
2018-12-25T16:55:08.109Z,5.67
2018-12-25T17:01:12.673Z,6.77
2018-12-25T17:07:17.303Z,6.23
2018-12-25T17:13:21.853Z,5.57
2018-12-25T17:19:26.426Z,9.87
2018-12-25T17:25:31.007Z,7.10
2018-12-25T17:31:35.579Z,6.30
2018-12-25T17:37:40.210Z,17.67
2018-12-25T17:43:44.784Z,9.80
2018-12-25T17:49:49.365Z,9.17
2018-12-25T17:55:53.973Z,7.77
2018-12-25T18:01:58.529Z,8.30
2018-12-25T18:08:03.083Z,5.43
2018-12-25T18:14:07.652Z,6.90
2018-12-25T18:20:12.217Z,6.87
2018-12-25T18:26:16.782Z,7.70
2018-12-25T18:32:21.324Z,8.23
2018-12-25T18:38:25.888Z,7.90
2018-12-25T18:44:30.444Z,9.10
2018-12-25T18:50:35.008Z,10.30
2018-12-25T18:56:39.576Z,8.40
2018-12-25T19:02:44.140Z,9.83
2018-12-25T19:08:48.688Z,9.73
2018-12-25T19:14:59.246Z,7.93
2018-12-25T19:21:03.769Z,7.57
2018-12-25T19:27:08.318Z,9.57
2018-12-25T19:33:12.874Z,6.93
2018-12-25T19:39:17.509Z,8.77
2018-12-25T19:45:22.975Z,9.27
2018-12-25T19:51:27.593Z,9.10
2018-12-25T19:57:32.168Z,10.00
2018-12-25T20:03:40.425Z,8.80
2018-12-25T20:10:10.287Z,10.77
2018-12-25T20:16:52.952Z,12.80
2018-12-25T20:23:30.072Z,13.10
2018-12-25T20:30:01.645Z,14.07
2018-12-25T20:36:25.734Z,13.97
2018-12-25T20:43:13.578Z,15.80
2018-12-25T20:49:41.900Z,17.77
2018-12-25T20:56:02.951Z,17.13
2018-12-25T21:02:36.062Z,15.00
2018-12-25T21:09:34.599Z,19.97
2018-12-25T21:15:58.748Z,18.47
2018-12-25T21:22:10.409Z,16.63
2018-12-25T21:28:13.378Z,19.00
2018-12-25T21:34:18.286Z,17.80
2018-12-25T21:40:23.188Z,18.30
2018-12-25T21:46:28.091Z,18.27
2018-12-25T21:52:32.869Z,17.50
2018-12-25T21:58:37.572Z,18.30
2018-12-25T22:04:42.142Z,16.87
2018-12-25T22:10:46.703Z,16.20
2018-12-25T22:16:51.270Z,17.53
2018-12-25T22:22:55.857Z,16.30
2018-12-25T22:29:00.473Z,16.63
2018-12-25T22:35:05.161Z,14.00
2018-12-25T22:41:09.733Z,15.07
2018-12-25T22:47:14.306Z,14.30
2018-12-25T22:53:19.406Z,15.57
2018-12-25T22:59:24.021Z,16.50
2018-12-25T23:05:28.661Z,13.03
2018-12-25T23:11:33.259Z,15.40
2018-12-25T23:17:37.982Z,14.87
2018-12-25T23:23:42.551Z,14.50
2018-12-25T23:29:47.127Z,14.00
2018-12-25T23:35:53.241Z,12.50
2018-12-25T23:41:59.447Z,11.40
2018-12-25T23:48:04.156Z,9.40
2018-12-25T23:54:08.776Z,10.27
